Tiempo atmosférico en la estación meteorológica de Manresa, Barcelona (291 m.)



Fecha
DESCASC
Temp. máxima en grados centígrados (hora)
DESCASC
Temp. mínima en grados centígrados (hora)
DESCASC
Temp. media en grados centígrados
DESCASC
Racha de viento máxima en m/sg (hora)
DESCASC
Velocidad máxima media en intervalos de 10 minutos(hora)
DESCASC
Precipitaciones diarias en mm
DESCASC
Precipitaciones de 00:00 a 06:00 en mm
DESCASC
Precipitaciones de 06:00 a 12:00 en mm
DESCASC
Precipitaciones de 12:00 a 18:00 en mm
DESCASC
Precipitaciones de 18:00 a 24:00 en mm
DESCASC
17-01-2021 13.7 (15:10) -0.7 (06:20) 6.5 10.56 (16:30) 5.83 (16:50) 0 0 0 0 0
16-01-2021 10.2 (15:50) -3.3 (09:00) 3.4 6.39 (14:20) 3.89 (14:20) 0 0 0 0 0
15-01-2021 10 (16:10) -0.4 (23:50) 4.8 6.39 (03:30) 3.61 (03:20) 0 0 0 0 0
14-01-2021 5.4 (15:40) 0.4 (00:20) 2.9 9.17 (15:10) 4.44 (15:20) 0 0 0 0 0
13-01-2021 6.8 (14:50) -1 (-00:0) 2.9 8.89 (16:30) 5 (16:50) 0 0 0 0 0
12-01-2021 4.2 (14:40) -3.2 (-00:0) 0.5 10.83 (15:00) 5.83 (15:00) 0 0 0 0 0
11-01-2021 3.2 (14:40) 0.6 (00:00) 1.9 6.94 (16:00) 4.17 (15:20) 0.2 0.2 0 0 0
10-01-2021 8.3 (13:50) 2.7 (22:30) 5.5 8.61 (03:20) 5 (03:20) 3 2.8 0.2 0 0
09-01-2021 5.9 (16:50) 0.4 (00:00) 3.2 10 (21:40) 5.28 (21:50) 7.4 1.2 4.8 1.2 0.2
08-01-2021 3.7 (16:20) -4.4 (-00:0) -0.4 3.33 (08:40) 2.22 (10:50) 0 0 0 0 0
07-01-2021 4.1 (15:20) -3.3 (-00:0) 0.4 5.56 (19:00) 3.06 (20:30) 0 0 0 0 0
06-01-2021 7.4 (16:40) -5.3 (-00:0) 1 5 (18:40) 2.78 (07:50) 0 0 0 0 0
05-01-2021 6.6 (16:20) -4.5 (-00:0) 1 6.11 (17:10) 3.06 (14:50) 0 0 0 0 0
04-01-2021 7.5 (16:10) -3.5 (-00:0) 2 8.06 (15:10) 4.44 (15:00) 0 0 0 0 0
03-01-2021 8.1 (16:10) -2.4 (-00:0) 2.9 7.22 (15:40) 3.89 (15:40) 0 0 0 0 0
02-01-2021 4.9 (16:30) 0.4 (00:00) 2.7 8.06 (03:10) 4.17 (03:10) 0 0 0 0 0
01-01-2021 7.9 (15:50) 0.5 (00:00) 4.2 7.5 (16:20) 4.44 (16:20) 0 0 0 0 0
31-12-2020 9.8 (14:20) -1 (-00:0) 4.4 -- (--) -- (--) 0 0 0 0 0
30-12-2020 9.7 (15:20) -0.6 (-00:0) 4.5 9.72 (13:50) 5.28 (13:50) 0 0 0 0 0
29-12-2020 10.5 (15:00) 2.2 (00:00) 6.4 12.5 (15:50) 6.67 (15:50) 0 0 0 0 0
28-12-2020 10.1 (14:10) 0.5 (00:00) 5.3 16.11 (15:10) 8.33 (15:10) 0 0 0 0 0
27-12-2020 5 (16:00) -3.6 (-00:0) 0.7 -- (--) -- (--) 0 0 0 0 0
26-12-2020 10.4 (13:50) -0.3 (00:00) 5 10.56 (14:50) 5.28 (14:50) 0 0 0 0 0
25-12-2020 11 (15:20) 0.9 (00:00) 5.9 9.72 (14:00) 5.28 (13:50) 0 0 0 0 0
24-12-2020 10.8 (16:40) 4.7 (00:00) 7.8 -- (--) -- (--) 0 0 0 0 0
23-12-2020 10.5 (16:30) 2.6 (00:00) 6.5 2.5 (23:50) 1.67 (23:59) 0 0 0 0 0
22-12-2020 16 (16:20) 2.2 (00:00) 9.1 -- (--) -- (--) 0 0 0 0 0
21-12-2020 -- (--) -- (--) -- -- (--) -- (--) -- -- -- 0 0

Gráficas

Temp. máximas Temp. mínimas Temp. medias Precipitaciones Rachas de viento máximas Velocidades máximas media en intervalos de 10 minutos

Datos horarios

Fecha y hora oficial Temperatura (ºC) Velocidad del viento (km/h) Dirección del viento Racha (km/h) Dirección de racha Precipitación (mm) Presión (hPa) Tendencia (hPa) Humedad (%)
2021-01-19 23:00:00 3.3 2 Noroeste 5 Nordeste 0 986.3 -0.5 91
2021-01-19 22:00:00 4.5 4 Norte 6 Oeste 0 986.7 0.2 89
2021-01-19 21:00:00 6.2 3 Oeste 8 Sur 0 986.8 0.5 87
2021-01-19 20:00:00 8.3 4 Sudoeste 10 Sur 0 986.8 -- 85
2021-01-19 19:00:00 10 5 Sur 15 Sur 0 986.5 -- 78
2021-01-19 18:00:00 12.1 6 Sur 12 Sudoeste 0 986.3 -- 67
2021-01-19 17:00:00 13.7 4 Sur 13 Sur 0 986.7 -- 58
2021-01-19 16:00:00 13.5 4 Sudoeste 10 Sudoeste 0 987.2 -- 53
2021-01-19 15:00:00 11.1 3 Oeste 8 Oeste 0 988 -- 57
2021-01-19 14:00:00 8.4 4 Norte 6 Norte 0 989.1 -- 65
2021-01-19 13:00:00 5.3 3 Nordeste 8 Norte 0 990.5 -- 71
2021-01-19 12:00:00 3.1 2 Sudoeste 6 Oeste 0 991.5 -- 78
2021-01-19 11:00:00 0.6 3 Nordeste 7 Nordeste 0 991.7 -- 83
2021-01-19 10:00:00 -1.7 5 Nordeste 8 Nordeste 0 991.5 -- 93
2021-01-19 09:00:00 -2.2 4 Nordeste 7 Nordeste 0 991.4 -- 94
2021-01-19 08:00:00 -2.4 4 Nordeste 7 Norte 0 991.3 -- 94
2021-01-19 07:00:00 -2 4 Norte 7 Nordeste 0 991.2 -- 95
2021-01-19 06:00:00 -1.7 3 Norte 8 Nordeste 0 991.3 -- 94
2021-01-19 05:00:00 -1.5 3 Norte 5 Norte 0 991.6 -- 95
2021-01-19 04:00:00 -1.1 2 Norte 6 Nordeste 0 992 -- 94
2021-01-19 03:00:00 -1 3 Nordeste 6 Norte 0 992.2 -- 93
2021-01-19 02:00:00 -0.2 4 Norte 6 Nordeste 0 992.6 -- 93
2021-01-19 01:00:00 0.5 4 Nordeste 7 Nordeste 0 992.9 -- 92
2021-01-19 00:00:00 1.5 4 Nordeste 7 Nordeste 0 993 -- 91
2021-01-18 23:00:00 1.9 4 Nordeste 12 Nordeste 0 993 -- 89
2021-01-18 22:00:00 3 2 Nordeste 12 Nordeste 0 992.9 -- 87
2021-01-18 21:00:00 4.4 4 Norte 8 Norte 0 992.9 -- 84
2021-01-18 20:00:00 6.5 3 Este 6 Norte 0 992.5 -- 78
2021-01-18 19:00:00 7.8 3 Nordeste 7 Norte 0 992 -- 74
2021-01-18 18:00:00 9.4 5 Nordeste 10 Norte 0 991.5 -- 65
2021-01-18 17:00:00 10.4 4 Nordeste 12 Nordeste 0 991.4 -- 62
2021-01-18 16:00:00 10.4 6 Nordeste 13 Nordeste 0 991.4 -- 62
2021-01-18 15:00:00 10 4 Nordeste 13 Norte 0 991.6 -- 64
2021-01-18 14:00:00 9.5 6 Nordeste 12 Nordeste 0 992.1 -- 66
2021-01-18 13:00:00 8.6 7 Norte 13 Norte 0 992.7 -- 68
2021-01-18 12:00:00 6.4 6 Nordeste 11 Norte 0 993.4 -- 74
2021-01-18 11:00:00 4.3 2 Este 7 Sudeste 0 993.1 -- 81
2021-01-18 10:00:00 3 2 Oeste 11 Nordeste 0 992.6 -- 86
2021-01-18 09:00:00 2.9 5 Nordeste 9 Nordeste 0 992.3 -- 85
2021-01-18 08:00:00 1.9 4 Sudoeste 6 Oeste 0 992.3 -- 88
2021-01-18 07:00:00 1.8 2 Nordeste 5 Nordeste 0 991.7 -- 89
2021-01-18 06:00:00 1.2 0 Calma 4 Norte 0 991.3 -- 90
2021-01-18 05:00:00 0.9 3 Norte 8 Nordeste 0 991.4 -- 91
2021-01-18 04:00:00 0.5 6 Norte 9 Nordeste 0 991.4 -- 93
2021-01-18 03:00:00 0.4 4 Norte 9 Nordeste 0 991.3 -- 91
2021-01-18 02:00:00 1.4 6 Nordeste 9 Nordeste 0 991 -- 90
2021-01-18 01:00:00 2.3 2 Noroeste 8 Nordeste 0 991.2 -- 88
2021-01-18 00:00:00 3 5 Nordeste 7 Nordeste 0 991.1 -- 86
2021-01-17 23:00:00 4 3 Nordeste 12 Nordeste 0 990.3 -- 81
2021-01-17 22:00:00 4.7 5 Nordeste 13 Nordeste 0 989.9 -- 79
2021-01-17 21:00:00 6.3 3 Norte 11 Este 0 989.1 -- 75
2021-01-17 20:00:00 9 7 Este 18 Este 0 988.2 -- 68
2021-01-17 19:00:00 10.3 8 Nordeste 22 Nordeste 0 987.4 -- 59
2021-01-17 18:00:00 12.6 9 Noroeste 33 Noroeste 0 986.5 -- 57
2021-01-17 17:00:00 13.1 20 Noroeste 38 Noroeste 0 986.5 -- 53
2021-01-17 16:00:00 13.2 21 Noroeste 35 Oeste 0 986.6 -- 49
2021-01-17 15:00:00 13.5 9 Oeste 17 Oeste 0 986.6 -- 45
2021-01-17 14:00:00 11 8 Nordeste 14 Nordeste 0 987.2 -- 48
2021-01-17 13:00:00 9.1 10 Nordeste 15 Nordeste 0 988.3 -- 51
2021-01-17 12:00:00 6.6 8 Nordeste -- -- 0 989.2 -- 62
2021-01-17 11:00:00 3.3 8 Nordeste 19 Este 0 989.5 -- 77
2021-01-17 10:00:00 0.3 7 Nordeste 20 Nordeste 0 989.1 -- 88
2021-01-17 09:00:00 -0.6 8 Nordeste 19 Nordeste 0 988.9 -- 90
2021-01-17 08:00:00 -0.3 9 Nordeste 20 Este 0 988.7 -- 89
2021-01-17 07:00:00 -0.5 12 Nordeste 19 Nordeste 0 988.7 -- 91
2021-01-17 06:00:00 -0.3 7 Nordeste 19 Nordeste 0 989.1 -- 90
2021-01-17 05:00:00 -0.3 10 Nordeste 19 Nordeste 0 989.2 -- 90
2021-01-17 04:00:00 -0.3 6 Nordeste 15 Este 0 989.6 -- 91
2021-01-17 03:00:00 -0.4 6 Norte 15 Nordeste 0 990 -- 92
2021-01-17 02:00:00 -0.1 6 Norte 14 Nordeste 0 990.4 -- 91
2021-01-17 01:00:00 0.6 8 Nordeste 13 Nordeste 0 991.2 -- 88
2021-01-17 00:00:00 0.9 4 Nordeste 12 Nordeste 0 991.3 -- 87
2021-01-16 23:00:00 1.9 7 Nordeste 11 Nordeste 0 991.7 -- 84
2021-01-16 22:00:00 2.8 3 Nordeste 8 Nordeste 0 991.5 -- 82
2021-01-16 21:00:00 4.1 4 Nordeste 9 Nordeste 0 991.6 -- 77
2021-01-16 20:00:00 5.1 3 Nordeste 8 Este 0 991.3 -- 72
2021-01-16 19:00:00 6.4 2 Norte 12 Oeste 0 991 -- 67
2021-01-16 18:00:00 7.8 6 Oeste 20 Oeste 0 990.7 -- 61
2021-01-16 17:00:00 9.4 10 Oeste 23 Oeste 0 990.2 -- 53
2021-01-16 16:00:00 9.8 11 Oeste 22 Noroeste 0 989.9 -- 51
2021-01-16 15:00:00 9.6 12 Oeste 23 Oeste 0 989.7 -- 51
2021-01-16 14:00:00 8.3 7 Norte 15 Nordeste 0 990.3 -- 61
2021-01-16 13:00:00 6 8 Nordeste 14 Este 0 991.3 -- 70
2021-01-16 12:00:00 2.4 9 Nordeste 13 Nordeste 0 991.8 -- 82
2021-01-16 11:00:00 0.2 4 Nordeste 13 Nordeste 0 991.5 -- 85
2021-01-16 10:00:00 -2.5 7 Nordeste 14 Nordeste 0 991.1 -- 94
2021-01-16 09:00:00 -3.3 3 Norte 10 Nordeste 0 990.4 -- 94
2021-01-16 08:00:00 -3 3 Nordeste 8 Este 0 990 -- 95
2021-01-16 07:00:00 -2.8 3 Nordeste 6 Norte 0 989.2 -- 95
2021-01-16 06:00:00 -2.6 5 Nordeste 10 Nordeste 0 988.8 -- 94
2021-01-16 05:00:00 -1.7 6 Nordeste 9 Este 0 988.2 -- 95
2021-01-16 04:00:00 -1.8 2 Noroeste 8 Este 0 987.9 -- 94
2021-01-16 03:00:00 -1.3 5 Este 13 Este 0 987.5 -- 94
2021-01-16 02:00:00 -1.1 6 Este 12 Este 0 987.2 -- 93
2021-01-16 01:00:00 -0.7 3 Norte 9 Sudeste 0 986.5 -- 93
2021-01-16 00:00:00 -0.4 4 Nordeste 17 Nordeste 0 986.4 -- 92
2021-01-15 23:00:00 0.5 2 Oeste 12 Nordeste 0 986.1 -- 90
2021-01-15 22:00:00 1.5 4 Este 11 Oeste 0 986.3 -- 89
2021-01-15 21:00:00 2.7 8 Nordeste 13 Este 0 986.4 -- 86
2021-01-15 20:00:00 3.8 2 Noroeste 5 Nordeste 0 986.3 -- 84
2021-01-15 19:00:00 5.4 0 Calma 12 Este 0 985.9 -- 76
2021-01-15 18:00:00 7.6 5 Nordeste 12 Nordeste 0 985.7 -- 66
2021-01-15 17:00:00 9 8 Nordeste 17 Noroeste 0 985.5 -- 61
2021-01-15 16:00:00 9.9 5 Noroeste 23 Noroeste 0 985.5 -- 60
2021-01-15 15:00:00 8.8 6 Noroeste 16 Nordeste 0 985.5 -- 63
2021-01-15 14:00:00 6.1 10 Nordeste 16 Nordeste 0 986.3 -- 69
2021-01-15 13:00:00 5.2 12 Nordeste 18 Nordeste 0 987.6 -- 73
2021-01-15 12:00:00 3.9 6 Nordeste 15 Norte 0 988.2 -- 76
2021-01-15 11:00:00 2.8 4 Norte 13 Norte 0 988.3 -- 80
2021-01-15 10:00:00 2.6 9 Nordeste 15 Nordeste 0 987.8 -- 82
2021-01-15 09:00:00 1.5 8 Nordeste 16 Nordeste 0 987.2 -- 87
2021-01-15 08:00:00 1.5 8 Nordeste 18 Nordeste 0 986.7 -- 88
2021-01-15 07:00:00 1.6 11 Nordeste 19 Nordeste 0 986.7 -- 87
2021-01-15 06:00:00 2 9 Nordeste 19 Nordeste 0 986.5 -- 86
2021-01-15 05:00:00 2.2 8 Nordeste 19 Este 0 986.6 -- 86
2021-01-15 04:00:00 2 11 Nordeste 23 Este 0 986.6 -- 86
2021-01-15 03:00:00 1.9 9 Nordeste 19 Este 0 986.7 -- 85
2021-01-15 02:00:00 2.2 8 Nordeste 17 Nordeste 0 986.8 -- 84
2021-01-15 01:00:00 2.2 10 Este 14 Nordeste 0 987.5 -- 83
2021-01-15 00:00:00 2.3 7 Este 14 Nordeste 0 987.6 -- 82
2021-01-14 23:00:00 2.6 8 Nordeste 15 Nordeste 0 987.5 -- 81
2021-01-14 22:00:00 2.9 8 Nordeste 15 Nordeste 0 987.5 -- 81
2021-01-14 21:00:00 2.7 12 Nordeste 18 Nordeste 0 987.5 -- 81
2021-01-14 20:00:00 2.8 9 Nordeste 17 Nordeste 0 987.4 -- 82
2021-01-14 19:00:00 3.8 6 Nordeste 15 Nordeste 0 987.5 -- 79
2021-01-14 18:00:00 4.1 10 Nordeste 20 Norte 0 987.6 -- 78
2021-01-14 17:00:00 4.8 9 Nordeste 17 Oeste 0 987.7 -- 75
2021-01-14 16:00:00 5.1 11 Oeste 33 Oeste 0 988.1 -- 74
2021-01-14 15:00:00 5 12 Oeste 25 Noroeste 0 988.3 -- 76
2021-01-14 14:00:00 4.3 7 Oeste 14 Oeste 0 989 -- 77
2021-01-14 13:00:00 3.8 5 Nordeste 10 Nordeste 0 990 -- 77
2021-01-14 12:00:00 3 6 Nordeste 13 Nordeste 0 990.5 -- 79
2021-01-14 11:00:00 2.3 8 Nordeste 17 Nordeste 0 990.5 -- 83
2021-01-14 10:00:00 1.9 8 Este 18 Nordeste 0 990.2 -- 85
2021-01-14 09:00:00 1.8 9 Nordeste 17 Nordeste 0 990 -- 86
2021-01-14 08:00:00 1.7 10 Este 16 Este 0 990 -- 87
2021-01-14 07:00:00 1.7 10 Nordeste 18 Nordeste 0 990.1 -- 87
2021-01-14 06:00:00 1.8 9 Nordeste 14 Este 0 990.2 -- 88
2021-01-14 05:00:00 1.8 9 Nordeste 16 Nordeste 0 990.4 -- 87
2021-01-14 04:00:00 1.5 9 Nordeste 17 Nordeste 0 990.8 -- 88
2021-01-14 03:00:00 1.4 9 Nordeste 15 Este 0 991 -- 87
2021-01-14 02:00:00 1.2 8 Nordeste 12 Nordeste 0 991.4 -- 89
2021-01-14 01:00:00 1.6 7 Nordeste 13 Este 0 992 -- 87
2021-01-14 00:00:00 0.6 2 Norte 9 Nordeste 0 992.3 -- 89
2021-01-13 23:00:00 0.8 8 Nordeste 13 Nordeste 0 992.6 -- 89
2021-01-13 22:00:00 1.2 10 Nordeste 17 Este 0 992.4 -- 89
2021-01-13 21:00:00 1.9 9 Nordeste 15 Nordeste 0 992.3 -- 86
2021-01-13 20:00:00 2.9 10 Nordeste 18 Este 0 992.2 -- 84
2021-01-13 19:00:00 3.8 6 Este 12 Oeste 0 992.1 -- 81
2021-01-13 18:00:00 5 8 Oeste 25 Oeste 0 992.1 -- 76
2021-01-13 17:00:00 5.6 13 Oeste 32 Oeste 0 991.9 -- 73
2021-01-13 16:00:00 5.9 13 Oeste 28 Oeste 0 991.9 -- 72
2021-01-13 15:00:00 6.3 14 Oeste 23 Oeste 0 991.7 -- 69
2021-01-13 14:00:00 4.6 4 Nordeste 11 Nordeste 0 992.3 -- 74
2021-01-13 13:00:00 3.9 8 Nordeste 15 Nordeste 0 993.1 -- 75
2021-01-13 12:00:00 2.8 10 Nordeste 19 Nordeste 0 993.7 -- 79
2021-01-13 11:00:00 1.8 9 Nordeste 22 Este 0 993.5 -- 82
2021-01-13 10:00:00 1 10 Nordeste 17 Este 0 992.8 -- 84
2021-01-13 09:00:00 1 9 Nordeste 16 Nordeste 0 992.1 -- 84
2021-01-13 08:00:00 1.1 8 Este 15 Nordeste 0 991.9 -- 85
2021-01-13 07:00:00 0.4 4 Norte 13 Nordeste 0 991.5 -- 87
2021-01-13 06:00:00 0.6 10 Este 18 Este 0 991.8 -- 86
2021-01-13 05:00:00 -0.2 8 Este 14 Este 0 991.6 -- 86
2021-01-13 04:00:00 -0.5 8 Nordeste 13 Este 0 991.6 -- 86
2021-01-13 03:00:00 -0.7 9 Este 14 Este 0 991.6 -- 86
2021-01-13 02:00:00 -0.7 9 Nordeste 16 Este 0 991.4 -- 85
2021-01-13 01:00:00 -0.7 11 Este 17 Este 0 991.8 -- 86
2021-01-13 00:00:00 -0.2 8 Nordeste 17 Este 0 991.8 -- 84
2021-01-12 23:00:00 0.4 7 Este 14 Este 0 992 -- 81
2021-01-12 22:00:00 0.2 6 Este 13 Nordeste 0 991.3 -- 82
2021-01-12 21:00:00 0.5 4 Nordeste 9 Nordeste 0 991.4 -- 80
2021-01-12 20:00:00 1 3 Nordeste 8 Sudeste 0 991.2 -- 77
2021-01-12 19:00:00 1.7 2 Nordeste 17 Oeste 0 991 -- 72
2021-01-12 18:00:00 2.2 10 Oeste 25 Oeste 0 990.7 -- 72
2021-01-12 17:00:00 3.8 10 Oeste 35 Oeste 0 990.6 -- 61
2021-01-12 16:00:00 3 19 Oeste 37 Noroeste 0 990.8 -- 66
2021-01-12 15:00:00 3.2 21 Noroeste 39 Noroeste 0 990.6 -- 64
2021-01-12 14:00:00 3.7 12 Oeste 24 Oeste 0 991 -- 63
2021-01-12 13:00:00 2.3 0 Calma 14 Nordeste 0 991.8 -- 67
2021-01-12 12:00:00 1.4 8 Nordeste 17 Este 0 992.3 -- 68
2021-01-12 11:00:00 0.3 10 Nordeste 16 Este 0 991.8 -- 73
2021-01-12 10:00:00 -2.1 8 Este 15 Nordeste 0 991.2 -- 87
2021-01-12 09:00:00 -2.5 6 Este 10 Este 0 990.9 -- 89
2021-01-12 08:00:00 -3.1 3 Norte 7 Norte 0 990.5 -- 93
2021-01-12 07:00:00 -2.5 3 Nordeste 8 Este 0 990 -- 90
2021-01-12 06:00:00 -2.3 2 Noroeste 5 Sudoeste 0 989.7 -- 90
2021-01-12 05:00:00 -2 2 Nordeste 7 Oeste 0 989.9 -- 88
2021-01-12 04:00:00 -1.6 2 Nordeste 6 Norte 0 989.9 -- 89
2021-01-12 03:00:00 -1.9 2 Nordeste 9 Nordeste 0 989.6 -- 88
2021-01-12 02:00:00 -1 5 Nordeste 9 Nordeste 0 989.4 -- 84
2021-01-12 01:00:00 -0.3 3 Nordeste 12 Nordeste 0 989.5 -- 81
2021-01-12 00:00:00 0.6 6 Oeste 14 Oeste 0 989 -- 78
2021-01-11 23:00:00 1 5 Norte 12 Nordeste 0 988.6 -- 77
2021-01-11 22:00:00 1 4 Norte 11 Nordeste 0 988.3 -- 77
2021-01-11 21:00:00 1.2 5 Norte 12 Norte 0 988 -- 77
2021-01-11 20:00:00 1.2 4 Noroeste 14 Noroeste 0 987.6 -- 76
2021-01-11 19:00:00 1.5 3 Noroeste 16 Noroeste 0 987 -- 75
2021-01-11 18:00:00 2.2 7 Norte 17 Nordeste 0 986.3 -- 72
2021-01-11 17:00:00 2.5 6 Noroeste 21 Noroeste 0 985.8 -- 72
2021-01-11 16:00:00 2.5 12 Oeste 25 Oeste 0 985.5 -- 72
2021-01-11 15:00:00 2.6 12 Oeste 19 Noroeste 0 985.2 -- 72
2021-01-11 14:00:00 2.9 5 Norte 11 Oeste 0 985.3 -- 73
2021-01-11 13:00:00 2.4 7 Oeste 11 Oeste 0 985.9 -- 73
2021-01-11 12:00:00 2 4 Oeste 10 Noroeste 0 986.2 -- 76
2021-01-11 11:00:00 1.4 7 Oeste 15 Oeste 0 985.4 -- 77
2021-01-11 10:00:00 0.9 5 Oeste 18 Oeste 0 984.7 -- 81
2021-01-11 09:00:00 0.9 11 Oeste 19 Oeste 0 983.6 -- 81
2021-01-11 08:00:00 1 8 Oeste 18 Noroeste 0 983 -- 82
2021-01-11 07:00:00 1.1 9 Oeste 18 Noroeste 0 982.8 -- 82
2021-01-11 06:00:00 1.4 8 Oeste 17 Noroeste 0 982.4 -- 81
2021-01-11 05:00:00 1.6 9 Oeste 19 Oeste 0 982.2 -- 83
2021-01-11 04:00:00 1.9 8 Oeste 18 Oeste 0 982.3 -- 84
2021-01-11 03:00:00 1.9 12 Noroeste 23 Oeste 0 982.1 -- 85
2021-01-11 02:00:00 2 13 Oeste 22 Noroeste 0.2 981.8 -- 86
2021-01-11 01:00:00 2.3 8 Noroeste 20 Oeste 0 981.8 -- 83
2021-01-11 00:00:00 2.7 6 Noroeste 19 Noroeste 0 981.6 -- 78
2021-01-10 23:00:00 2.7 4 Noroeste 16 Noroeste 0 981.6 -- 78
2021-01-10 22:00:00 2.8 5 Norte 16 Noroeste 0 981 -- 80
2021-01-10 21:00:00 3 5 Noroeste 17 Noroeste 0 980.6 -- 80
2021-01-10 20:00:00 3.1 9 Oeste 22 Oeste 0 979.9 -- 80
2021-01-10 19:00:00 3.7 8 Noroeste 21 Oeste 0 979.3 -- 78
2021-01-10 18:00:00 3.9 14 Oeste 23 Oeste 0 978.4 -- 77
2021-01-10 17:00:00 5.1 9 Oeste 18 Oeste 0 977.6 -- 75
2021-01-10 16:00:00 5.9 9 Oeste 14 Oeste 0 976.9 -- 73
2021-01-10 15:00:00 6.7 8 Oeste 14 Noroeste 0 976.5 -- 72
2021-01-10 14:00:00 8 6 Noroeste 20 Noroeste 0 976.3 -- 71
2021-01-10 13:00:00 7.5 5 Noroeste 16 Noroeste 0 976.6 -- 74
2021-01-10 12:00:00 6.8 6 Noroeste 18 Noroeste 0 977 -- 76
2021-01-10 11:00:00 5.5 4 Noroeste 9 Oeste 0.2 976.4 -- 81
2021-01-10 10:00:00 4.8 3 Nordeste 15 Nordeste 0 975.5 -- 80
2021-01-10 09:00:00 4.8 9 Norte 21 Nordeste 0 974.7 -- 74
2021-01-10 08:00:00 4.9 10 Nordeste 17 Nordeste 0 974.1 -- 74
2021-01-10 07:00:00 4.7 5 Nordeste 15 Nordeste 0 973.7 -- 78
2021-01-10 06:00:00 4.8 8 Norte 23 Norte 0 973.2 -- 78
2021-01-10 05:00:00 4 5 Norte 12 Nordeste 0 973 -- 85
2021-01-10 04:00:00 3.7 4 Norte 31 Norte 1 973.2 -- 88
2021-01-10 03:00:00 4 14 Nordeste 26 Nordeste 0.4 972.9 -- 86
2021-01-10 02:00:00 4 8 Nordeste 19 Nordeste 1.4 972.6 -- 87
2021-01-10 01:00:00 5 10 Nordeste 29 Nordeste 0 973.1 -- 74
2021-01-10 00:00:00 5.3 13 Nordeste 24 Norte 0.2 973.1 -- 71
2021-01-09 23:00:00 4.8 10 Nordeste 29 Nordeste 0 972.9 -- 78
2021-01-09 22:00:00 5.6 18 Nordeste 36 Nordeste 0 973 -- 70
2021-01-09 21:00:00 5.3 18 Nordeste 31 Nordeste 0 972.4 -- 74
2021-01-09 20:00:00 5.1 12 Nordeste 27 Nordeste 0 972.4 -- 76
2021-01-09 19:00:00 5.1 10 Nordeste 19 Nordeste 0 972.4 -- 78
2021-01-09 18:00:00 5 8 Nordeste 15 Nordeste 0.4 971.7 -- 82
2021-01-09 17:00:00 5.7 10 Nordeste 27 Nordeste 0 971.5 -- 75
2021-01-09 16:00:00 5.7 12 Nordeste 26 Nordeste 0 971 -- 77
2021-01-09 15:00:00 4.9 12 Nordeste 26 Nordeste 0.2 971 -- 83
2021-01-09 14:00:00 4.9 13 Nordeste 25 Nordeste 0 971.7 -- 83
2021-01-09 13:00:00 4.4 10 Nordeste 21 Nordeste 0.6 972.5 -- 87
2021-01-09 12:00:00 3.6 10 Nordeste 17 Norte 1.4 973.6 -- 90
2021-01-09 11:00:00 3.2 9 Nordeste 21 Nordeste 1.2 973.8 -- 91
2021-01-09 10:00:00 2.9 9 Nordeste 21 Nordeste 1 973.3 -- 91
2021-01-09 09:00:00 1.8 6 Norte 10 Norte 0.6 973 -- 94
2021-01-09 08:00:00 1.2 3 Noroeste 10 Noroeste 0.4 973.1 -- 94
2021-01-09 07:00:00 0.7 2 Noroeste 10 Norte 0.2 973.2 -- 94
2021-01-09 06:00:00 0.4 4 Norte 10 Nordeste 0.8 973.7 -- 94
2021-01-09 05:00:00 0.5 5 Norte 11 Norte 0.4 974.3 -- 92
2021-01-09 04:00:00 0.8 4 Noroeste 12 Este 0 975.3 -- 85
2021-01-09 03:00:00 0.9 3 Nordeste 5 Nordeste 0 975.4 -- 80
2021-01-09 02:00:00 0.7 3 Norte 9 Norte 0 975.2 -- 80
2021-01-09 01:00:00 0.8 5 Nordeste 9 Nordeste 0 976.5 -- 80
2021-01-09 00:00:00 1 3 Nordeste 8 Norte 0 977.1 -- 79
2021-01-08 23:00:00 1 3 Nordeste 5 Nordeste 0 977 -- 79
2021-01-08 22:00:00 1.5 2 Norte 7 Nordeste 0 977.1 -- 76
2021-01-08 21:00:00 1.9 5 Nordeste 8 Norte 0 977.2 -- 74
2021-01-08 20:00:00 2.1 4 Sudoeste 9 Sudoeste 0 977.3 -- 72
2021-01-08 19:00:00 2.3 4 Oeste 8 Sudoeste 0 977.1 -- 71
2021-01-08 18:00:00 2.7 2 Sudoeste 6 Nordeste 0 976.5 -- 67
2021-01-08 17:00:00 3.5 2 Nordeste 9 Nordeste 0 976.6 -- 63
2021-01-08 16:00:00 3.2 4 Este 9 Este 0 977 -- 64
2021-01-08 15:00:00 3 4 Nordeste 7 Nordeste 0 977.6 -- 65
2021-01-08 14:00:00 1.6 3 Nordeste 6 Norte 0 978.3 -- 71
2021-01-08 13:00:00 0.6 3 Norte 6 Oeste 0 979.1 -- 74
2021-01-08 12:00:00 -0.8 3 Oeste 7 Norte 0 980.5 -- 79
2021-01-08 11:00:00 -2.4 6 Norte 11 Nordeste 0 980.4 -- 85
2021-01-08 10:00:00 -3.9 6 Norte 11 Nordeste 0 980.1 -- 90
2021-01-08 09:00:00 -4.2 4 Nordeste 12 Nordeste 0 979.8 -- 91
2021-01-08 08:00:00 -4 6 Nordeste 10 Nordeste 0 979.1 -- 92
2021-01-08 07:00:00 -3.7 5 Nordeste 10 Nordeste 0 978.6 -- 92
2021-01-08 06:00:00 -3.2 7 Nordeste 11 Nordeste 0 978.6 -- 91
2021-01-08 05:00:00 -2.6 6 Nordeste 11 Este 0 979 -- 90
2021-01-08 04:00:00 -1.9 7 Nordeste 11 Nordeste 0 979.4 -- 89
2021-01-08 03:00:00 -1.4 3 Nordeste 5 Noroeste 0 979.3 -- 87
2021-01-08 02:00:00 -1 2 Norte 5 Nordeste 0 979.4 -- 87
2021-01-08 01:00:00 -0.2 3 Nordeste 8 Nordeste 0 979.5 -- 82
2021-01-08 00:00:00 0.9 3 Norte 15 Oeste 0 979.9 -- 77
2021-01-07 23:00:00 1.1 8 Oeste 19 Oeste 0 980 -- 76
2021-01-07 22:00:00 1.5 10 Noroeste 19 Oeste 0 979.6 -- 69
2021-01-07 21:00:00 1.8 9 Oeste 20 Oeste 0 979.7 -- 67
2021-01-07 20:00:00 2.3 8 Oeste 20 Oeste 0 979.4 -- 64
2021-01-07 19:00:00 2.7 10 Oeste 20 Oeste 0 978.5 -- 64
2021-01-07 18:00:00 3.6 8 Oeste 15 Oeste 0 978.1 -- 62
2021-01-07 17:00:00 3.9 2 Norte 6 Sudoeste 0 977.2 -- 63
2021-01-07 16:00:00 4 4 Oeste 6 Oeste 0 977 -- 60
2021-01-07 15:00:00 3.8 2 Norte 5 Nordeste 0 977.1 -- 56
2021-01-07 14:00:00 2.5 2 Oeste 6 Este 0 978 -- 65
2021-01-07 13:00:00 2 4 Nordeste 8 Norte 0 979.3 -- 67
2021-01-07 12:00:00 0.7 3 Norte 7 Este 0 980 -- 72
2021-01-07 11:00:00 -0.4 3 Norte 8 Nordeste 0 980.4 -- 76
2021-01-07 10:00:00 -1.3 5 Nordeste 7 Nordeste 0 980.1 -- 81
2021-01-07 09:00:00 -1.6 4 Nordeste 8 Nordeste 0 979.8 -- 81
2021-01-07 08:00:00 -1.9 0 Calma 5 Sudoeste 0 979.5 -- 82
2021-01-07 07:00:00 -2.5 2 Sudoeste 6 Noroeste 0 979.5 -- 83
2021-01-07 06:00:00 -2.4 2 Norte 6 Nordeste 0 979.6 -- 84
2021-01-07 05:00:00 -2.7 4 Nordeste 9 Norte 0 980.1 -- 83
2021-01-07 04:00:00 -2.5 4 Nordeste 7 Norte 0 980.5 -- 83
2021-01-07 03:00:00 -2.9 2 Sur 7 Oeste 0 980.5 -- 85
2021-01-07 02:00:00 -3.2 4 Oeste 9 Norte 0 980.8 -- 86
2021-01-07 01:00:00 -3 3 Nordeste 8 Norte 0 981.4 -- 85
2021-01-07 00:00:00 -3 3 Nordeste 8 Norte 0 981.7 -- 86
2021-01-06 23:00:00 -2.7 2 Nordeste 8 Nordeste 0 981.9 -- 85
2021-01-06 22:00:00 -1.5 2 Nordeste 6 Nordeste 0 981.8 -- 83
2021-01-06 21:00:00 -0.6 2 Nordeste 6 Nordeste 0 981.4 -- 79
2021-01-06 20:00:00 0.5 5 Nordeste 10 Noroeste 0 981 -- 75
2021-01-06 19:00:00 2 6 Noroeste 18 Oeste 0 980.1 -- 68
2021-01-06 18:00:00 3.7 8 Oeste 14 Oeste 0 979.4 -- 62
2021-01-06 17:00:00 7 5 Oeste 8 Oeste 0 978.9 -- 50
2021-01-06 16:00:00 6.6 3 Norte 8 Este 0 978.8 -- 51
2021-01-06 15:00:00 5 5 Nordeste 9 Nordeste 0 978.6 -- 56
2021-01-06 14:00:00 3.4 4 Nordeste 10 Nordeste 0 979.2 -- 60
2021-01-06 13:00:00 1.3 3 Nordeste 8 Nordeste 0 979.9 -- 70
2021-01-06 12:00:00 -1 4 Nordeste 9 Norte 0 980.8 -- 75
2021-01-06 11:00:00 -2.7 5 Nordeste 8 Nordeste 0 980.8 -- 77
2021-01-06 10:00:00 -4.9 4 Nordeste 10 Nordeste 0 980.4 -- 85
2021-01-06 09:00:00 -5.1 7 Nordeste 10 Nordeste 0 979.6 -- 87
2021-01-06 08:00:00 -4.9 8 Nordeste 14 Nordeste 0 979.3 -- 88
2021-01-06 07:00:00 -4.7 6 Nordeste 9 Nordeste 0 978.9 -- 89
2021-01-06 06:00:00 -4.6 6 Nordeste 10 Este 0 978.6 -- 90
2021-01-06 05:00:00 -5.1 5 Nordeste 8 Nordeste 0 978.5 -- 91
2021-01-06 04:00:00 -5 2 Nordeste 4 Norte 0 978.6 -- 92
2021-01-06 03:00:00 -4.7 3 Norte 8 Norte 0 978.1 -- 90
2021-01-06 02:00:00 -3.9 5 Nordeste 8 Nordeste 0 977.7 -- 91
2021-01-06 01:00:00 -3.6 2 Norte 8 Nordeste 0 977.8 -- 90
2021-01-06 00:00:00 -3 6 Norte 8 Nordeste 0 977.6 -- 89
2021-01-05 23:00:00 -2.5 2 Nordeste 9 Nordeste 0 977.6 -- 87
2021-01-05 22:00:00 -1.7 6 Nordeste 10 Norte 0 977.4 -- 86
2021-01-05 21:00:00 -0.5 0 Calma 10 Nordeste 0 977 -- 81
2021-01-05 20:00:00 0.5 6 Nordeste 11 Norte 0 976.7 -- 77
2021-01-05 19:00:00 1.7 5 Nordeste 13 Oeste 0 976.3 -- 73
2021-01-05 18:00:00 3.2 6 Oeste 22 Oeste 0 975.9 -- 66
2021-01-05 17:00:00 5.8 10 Oeste 18 Noroeste 0 975.2 -- 53
2021-01-05 16:00:00 6.2 8 Oeste 17 Noroeste 0 974.8 -- 54
2021-01-05 15:00:00 6 9 Oeste 18 Oeste 0 974.9 -- 56
2021-01-05 14:00:00 5.5 3 Este 8 Oeste 0 975.5 -- 61
2021-01-05 13:00:00 4.8 4 Oeste 9 Sudoeste 0 975.9 -- 66
2021-01-05 12:00:00 1.1 3 Nordeste 7 Nordeste 0 976.6 -- 74
2021-01-05 11:00:00 -1.1 4 Nordeste 7 Nordeste 0 976.7 -- 79
2021-01-05 10:00:00 -3.7 5 Nordeste 9 Nordeste 0 976.5 -- 89
2021-01-05 09:00:00 -4.1 4 Nordeste 6 Nordeste 0 975.8 -- 89
2021-01-05 08:00:00 -4.3 4 Nordeste 9 Nordeste 0 975.4 -- 90
2021-01-05 07:00:00 -4.3 4 Nordeste 10 Nordeste 0 975 -- 92
2021-01-05 06:00:00 -3.9 5 Nordeste 8 Nordeste 0 974.7 -- 91
2021-01-05 05:00:00 -4 4 Nordeste 7 Norte 0 974.7 -- 91
2021-01-05 04:00:00 -3.3 4 Nordeste 9 Este 0 975.1 -- 90
2021-01-05 03:00:00 -2.9 5 Nordeste 9 Nordeste 0 975.1 -- 90
2021-01-05 02:00:00 -2.3 4 Norte 11 Este 0 974.8 -- 87
2021-01-05 01:00:00 -1.7 6 Nordeste 14 Nordeste 0 974.5 -- 86
2021-01-05 00:00:00 -0.8 8 Nordeste 12 Nordeste 0 974.4 -- 83
2021-01-04 23:00:00 1.2 5 Nordeste 19 Noroeste 0 974 -- 74
2021-01-04 22:00:00 2.5 8 Noroeste 16 Noroeste 0 973.8 -- 69
2021-01-04 21:00:00 2.8 6 Oeste 13 Oeste 0 973.8 -- 68
2021-01-04 20:00:00 3.4 3 Sudoeste 9 Sudoeste 0 973.7 -- 65
2021-01-04 19:00:00 4.2 4 Oeste 19 Noroeste 0 973.3 -- 63
2021-01-04 18:00:00 5.7 13 Oeste 22 Oeste 0 972.9 -- 56
2021-01-04 17:00:00 7.1 12 Oeste 23 Oeste 0 972.9 -- 50
2021-01-04 16:00:00 7.4 11 Oeste 29 Noroeste 0 972.6 -- 52
2021-01-04 15:00:00 6.9 16 Oeste 28 Oeste 0 972.6 -- 53
2021-01-04 14:00:00 4.4 5 Nordeste 17 Este 0 973.5 -- 65
2021-01-04 13:00:00 3.2 9 Nordeste 19 Nordeste 0 974.7 -- 71
2021-01-04 12:00:00 1.5 9 Este 15 Este 0 975.8 -- 76
2021-01-04 11:00:00 -0.2 7 Este 12 Este 0 976 -- 79
2021-01-04 10:00:00 -0.7 4 Nordeste 8 Nordeste 0 976.1 -- 80
2021-01-04 09:00:00 -1.1 3 Nordeste 8 Nordeste 0 975.8 -- 80
2021-01-04 08:00:00 -1.8 3 Nordeste 10 Nordeste 0 975.6 -- 83
2021-01-04 07:00:00 -2 5 Norte 9 Nordeste 0 975.5 -- 83
2021-01-04 06:00:00 -2.3 5 Nordeste 8 Nordeste 0 975.6 -- 84
2021-01-04 05:00:00 -2.7 3 Norte 6 Norte 0 975.8 -- 85
2021-01-04 04:00:00 -3.3 5 Norte 9 Norte 0 975.9 -- 86
2021-01-04 03:00:00 -3.4 4 Nordeste 8 Nordeste 0 975.9 -- 86
2021-01-04 02:00:00 -3.3 3 Norte 7 Nordeste 0 976.1 -- 87
2021-01-04 01:00:00 -2.7 4 Nordeste 8 Nordeste 0 976.4 -- 84
2021-01-04 00:00:00 -2.4 3 Sudoeste 7 Nordeste 0 976.5 -- 84
2021-01-03 23:00:00 -1.4 4 Nordeste 8 Nordeste 0 976.3 -- 78
2021-01-03 22:00:00 -0.7 6 Nordeste 9 Nordeste 0 976.2 -- 76
2021-01-03 21:00:00 0.4 2 Noroeste 8 Este 0 975.9 -- 71
2021-01-03 20:00:00 1.7 0 Calma 8 Sudeste 0 975.6 -- 65
2021-01-03 19:00:00 3.8 3 Este 12 Noroeste 0 974.9 -- 56
2021-01-03 18:00:00 5.9 10 Oeste 21 Sudoeste 0 974.8 -- 45
2021-01-03 17:00:00 7.4 11 Oeste 19 Oeste 0 974.6 -- 38
2021-01-03 16:00:00 8 9 Oeste 26 Oeste 0 974.5 -- 38
2021-01-03 15:00:00 6.7 5 Nordeste 18 Este 0 974.6 -- 43
2021-01-03 14:00:00 5.2 9 Nordeste 16 Este 0 975 -- 49
2021-01-03 13:00:00 4 5 Nordeste 12 Norte 0 975.9 -- 52
2021-01-03 12:00:00 2.3 8 Nordeste 13 Nordeste 0 976.5 -- 61
2021-01-03 11:00:00 1 7 Nordeste 16 Oeste 0 976.5 -- 69
2021-01-03 10:00:00 -0.3 7 Oeste 19 Oeste 0 976 -- 66
2021-01-03 09:00:00 -0.7 6 Noroeste 12 Oeste 0 975.3 -- 72
2021-01-03 08:00:00 0.3 4 Norte 15 Oeste 0 974.8 -- 70
2021-01-03 07:00:00 0.6 9 Oeste 19 Oeste 0 974.4 -- 64
2021-01-03 06:00:00 0.9 11 Oeste 18 Oeste 0 974 -- 62
2021-01-03 05:00:00 0.8 7 Oeste 18 Noroeste 0 974.2 -- 62
2021-01-03 04:00:00 1 8 Oeste 13 Oeste 0 974.5 -- 62
2021-01-03 03:00:00 0.9 6 Oeste 13 Oeste 0 974.3 -- 64
2021-01-03 02:00:00 1.1 5 Oeste 11 Oeste 0 974.4 -- 66
2021-01-03 01:00:00 1.2 3 Noroeste 10 Oeste 0 974 -- 66
2021-01-03 00:00:00 1.1 4 Oeste 7 Oeste 0 973.8 -- 81
2021-01-02 23:00:00 1.4 3 Nordeste 11 Nordeste 0 973.1 -- 82
2021-01-02 22:00:00 1.9 5 Nordeste 10 Nordeste 0 972.9 -- 79
2021-01-02 21:00:00 2.5 6 Nordeste 12 Nordeste 0 972.6 -- 77
2021-01-02 20:00:00 3 6 Nordeste 11 Nordeste 0 972.4 -- 75
2021-01-02 19:00:00 3.5 7 Este 10 Este 0 972 -- 70
2021-01-02 18:00:00 4.3 5 Nordeste 14 Oeste 0 971.9 -- 66
2021-01-02 17:00:00 4.8 4 Norte 11 Oeste 0 971.7 -- 63
2021-01-02 16:00:00 4.7 9 Oeste 24 Oeste 0 971.4 -- 64
2021-01-02 15:00:00 4.3 11 Oeste 24 Noroeste 0 971.4 -- 65
2021-01-02 14:00:00 4.1 9 Noroeste 20 Oeste 0 971.7 -- 66